New Harmony, Ohio
Current Conditions -  °F | °C
As of 7:16 AM on Sunday 21 Dec 2014 (Local Time) from KLUK Reporting Station
Haze Haze  
Wind Chill: 18°   Ceiling: 2000
Heat Index: 24°   Visibility: 4mi
Dew Point: 23°   Wind: 5mph
Humidity: 96%   Direction: NA
Pressure: 30.34"   Gusts: NA
Location:  39.088°N, 84.0217°W
Report Text: KLUK 211216Z VRB04KT 4SM BR BKN020 M04/M05 A3034 RMK AO2 T10441050
Loading
Personal Weather Stations






























Interactive Weather Map New forecast layout! Learn more

10-Day Weather Forecast

Advertisements
Track Severe Weather on mobile